sensor_id;sensor_type;location;lat;lon;timestamp;temperature;humidity
37240;DHT22;23130;48.760;9.178;2023-11-19T00:00:19;7.70;99.90
37240;DHT22;23130;48.760;9.178;2023-11-19T00:02:45;7.70;99.90
37240;DHT22;23130;48.760;9.178;2023-11-19T00:05:10;7.80;99.90
37240;DHT22;23130;48.760;9.178;2023-11-19T00:07:37;7.80;99.90
37240;DHT22;23130;48.760;9.178;2023-11-19T00:10:07;7.80;99.90
37240;DHT22;23130;48.760;9.178;2023-11-19T00:12:37;7.80;99.90
37240;DHT22;23130;48.760;9.178;2023-11-19T00:15:02;7.90;99.90
37240;DHT22;23130;48.760;9.178;2023-11-19T00:17:28;7.90;99.90
37240;DHT22;23130;48.760;9.178;2023-11-19T00:19:55;8.00;99.90
37240;DHT22;23130;48.760;9.178;2023-11-19T00:22:21;8.00;99.90
37240;DHT22;23130;48.760;9.178;2023-11-19T00:24:47;8.00;99.90
37240;DHT22;23130;48.760;9.178;2023-11-19T00:27:12;8.10;99.90
37240;DHT22;23130;48.760;9.178;2023-11-19T00:29:38;8.10;99.90
37240;DHT22;23130;48.760;9.178;2023-11-19T00:32:03;8.10;99.90
37240;DHT22;23130;48.760;9.178;2023-11-19T00:34:31;8.10;99.90
37240;DHT22;23130;48.760;9.178;2023-11-19T00:36:56;8.10;99.90
37240;DHT22;23130;48.760;9.178;2023-11-19T00:39:22;8.10;99.90
37240;DHT22;23130;48.760;9.178;2023-11-19T00:41:48;8.20;99.90
37240;DHT22;23130;48.760;9.178;2023-11-19T00:44:14;8.20;99.90
37240;DHT22;23130;48.760;9.178;2023-11-19T00:46:39;8.20;99.90
37240;DHT22;23130;48.760;9.178;2023-11-19T00:49:05;8.30;99.90
37240;DHT22;23130;48.760;9.178;2023-11-19T00:51:30;8.40;99.90
37240;DHT22;23130;48.760;9.178;2023-11-19T00:53:57;8.30;99.90
37240;DHT22;23130;48.760;9.178;2023-11-19T00:56:22;8.40;99.90
37240;DHT22;23130;48.760;9.178;2023-11-19T00:58:49;8.40;99.90
37240;DHT22;23130;48.760;9.178;2023-11-19T01:01:16;8.40;99.90
37240;DHT22;23130;48.760;9.178;2023-11-19T01:03:42;8.40;99.90
37240;DHT22;23130;48.760;9.178;2023-11-19T01:06:07;8.50;99.90
37240;DHT22;23130;48.760;9.178;2023-11-19T01:08:33;8.50;99.90
37240;DHT22;23130;48.760;9.178;2023-11-19T01:11:01;8.50;99.90
37240;DHT22;23130;48.760;9.178;2023-11-19T01:13:27;8.60;99.90
37240;DHT22;23130;48.760;9.178;2023-11-19T01:15:53;8.60;99.90
37240;DHT22;23130;48.760;9.178;2023-11-19T01:18:18;8.60;99.90
37240;DHT22;23130;48.760;9.178;2023-11-19T01:20:44;8.70;99.90
37240;DHT22;23130;48.760;9.178;2023-11-19T01:23:10;8.70;99.90
37240;DHT22;23130;48.760;9.178;2023-11-19T01:25:35;8.70;99.90
37240;DHT22;23130;48.760;9.178;2023-11-19T01:28:01;8.80;99.90
37240;DHT22;23130;48.760;9.178;2023-11-19T01:30:27;8.80;99.90
37240;DHT22;23130;48.760;9.178;2023-11-19T01:32:53;8.90;99.90
37240;DHT22;23130;48.760;9.178;2023-11-19T01:35:18;8.90;99.90
37240;DHT22;23130;48.760;9.178;2023-11-19T01:37:44;9.00;99.90
37240;DHT22;23130;48.760;9.178;2023-11-19T01:40:09;9.00;99.90
37240;DHT22;23130;48.760;9.178;2023-11-19T01:42:37;9.00;99.90
37240;DHT22;23130;48.760;9.178;2023-11-19T01:45:03;9.10;99.90
37240;DHT22;23130;48.760;9.178;2023-11-19T01:47:31;9.10;99.90
37240;DHT22;23130;48.760;9.178;2023-11-19T01:49:58;9.10;99.90
37240;DHT22;23130;48.760;9.178;2023-11-19T01:52:23;9.10;99.90
37240;DHT22;23130;48.760;9.178;2023-11-19T01:54:50;9.10;99.90
37240;DHT22;23130;48.760;9.178;2023-11-19T01:57:16;9.20;99.90
37240;DHT22;23130;48.760;9.178;2023-11-19T01:59:42;9.20;99.90
37240;DHT22;23130;48.760;9.178;2023-11-19T02:02:08;9.20;99.90
37240;DHT22;23130;48.760;9.178;2023-11-19T02:04:33;9.30;99.90
37240;DHT22;23130;48.760;9.178;2023-11-19T02:07:00;9.30;99.90
37240;DHT22;23130;48.760;9.178;2023-11-19T02:09:25;9.30;99.90
37240;DHT22;23130;48.760;9.178;2023-11-19T02:11:53;9.30;99.90
37240;DHT22;23130;48.760;9.178;2023-11-19T02:14:24;9.40;99.90
37240;DHT22;23130;48.760;9.178;2023-11-19T02:16:51;9.40;99.90
37240;DHT22;23130;48.760;9.178;2023-11-19T02:19:19;9.40;99.90
37240;DHT22;23130;48.760;9.178;2023-11-19T02:21:44;9.40;99.90
37240;DHT22;23130;48.760;9.178;2023-11-19T02:24:10;9.40;99.90
37240;DHT22;23130;48.760;9.178;2023-11-19T02:26:39;9.50;99.90
37240;DHT22;23130;48.760;9.178;2023-11-19T02:29:05;9.50;99.90
37240;DHT22;23130;48.760;9.178;2023-11-19T02:31:32;9.50;99.90
37240;DHT22;23130;48.760;9.178;2023-11-19T02:33:59;9.50;99.90
37240;DHT22;23130;48.760;9.178;2023-11-19T02:36:27;9.50;99.90
37240;DHT22;23130;48.760;9.178;2023-11-19T02:38:53;9.50;99.90
37240;DHT22;23130;48.760;9.178;2023-11-19T02:41:18;9.50;99.90
37240;DHT22;23130;48.760;9.178;2023-11-19T02:43:43;9.60;99.90
37240;DHT22;23130;48.760;9.178;2023-11-19T02:46:09;9.60;99.90
37240;DHT22;23130;48.760;9.178;2023-11-19T02:48:35;9.50;99.90
37240;DHT22;23130;48.760;9.178;2023-11-19T02:51:01;9.50;99.90
37240;DHT22;23130;48.760;9.178;2023-11-19T02:53:31;9.60;99.90
37240;DHT22;23130;48.760;9.178;2023-11-19T02:55:57;9.60;99.90
37240;DHT22;23130;48.760;9.178;2023-11-19T02:58:37;9.60;99.90
37240;DHT22;23130;48.760;9.178;2023-11-19T03:01:02;9.60;99.90
37240;DHT22;23130;48.760;9.178;2023-11-19T03:03:45;9.70;99.90
37240;DHT22;23130;48.760;9.178;2023-11-19T03:06:19;9.70;99.90
37240;DHT22;23130;48.760;9.178;2023-11-19T03:08:44;9.60;99.90
37240;DHT22;23130;48.760;9.178;2023-11-19T03:11:10;9.60;99.90
37240;DHT22;23130;48.760;9.178;2023-11-19T03:13:35;9.70;99.90
37240;DHT22;23130;48.760;9.178;2023-11-19T03:16:01;9.70;99.90
37240;DHT22;23130;48.760;9.178;2023-11-19T03:18:26;9.70;99.90
37240;DHT22;23130;48.760;9.178;2023-11-19T03:20:54;9.70;99.90
37240;DHT22;23130;48.760;9.178;2023-11-19T03:23:19;9.70;99.90
37240;DHT22;23130;48.760;9.178;2023-11-19T03:25:45;9.70;99.90
37240;DHT22;23130;48.760;9.178;2023-11-19T03:28:10;9.80;99.90
37240;DHT22;23130;48.760;9.178;2023-11-19T03:30:36;9.70;99.90
37240;DHT22;23130;48.760;9.178;2023-11-19T03:33:01;9.70;99.90
37240;DHT22;23130;48.760;9.178;2023-11-19T03:35:29;9.80;99.90
37240;DHT22;23130;48.760;9.178;2023-11-19T03:37:55;9.80;99.90
37240;DHT22;23130;48.760;9.178;2023-11-19T03:40:21;9.80;99.90
37240;DHT22;23130;48.760;9.178;2023-11-19T03:42:47;9.80;99.90
37240;DHT22;23130;48.760;9.178;2023-11-19T03:45:13;9.80;99.90
37240;DHT22;23130;48.760;9.178;2023-11-19T03:47:38;9.80;99.90
37240;DHT22;23130;48.760;9.178;2023-11-19T03:50:04;9.80;99.90
37240;DHT22;23130;48.760;9.178;2023-11-19T03:52:30;9.80;99.90
37240;DHT22;23130;48.760;9.178;2023-11-19T03:54:56;9.90;99.90
37240;DHT22;23130;48.760;9.178;2023-11-19T03:57:24;9.90;99.90
37240;DHT22;23130;48.760;9.178;2023-11-19T03:59:49;9.90;99.90
37240;DHT22;23130;48.760;9.178;2023-11-19T04:02:15;10.00;99.90
37240;DHT22;23130;48.760;9.178;2023-11-19T04:04:42;10.00;99.90
37240;DHT22;23130;48.760;9.178;2023-11-19T04:07:08;9.90;99.90
37240;DHT22;23130;48.760;9.178;2023-11-19T04:09:39;9.90;99.90
37240;DHT22;23130;48.760;9.178;2023-11-19T04:12:04;9.90;99.90
37240;DHT22;23130;48.760;9.178;2023-11-19T04:14:30;10.00;99.90
37240;DHT22;23130;48.760;9.178;2023-11-19T04:16:55;10.00;99.90
37240;DHT22;23130;48.760;9.178;2023-11-19T04:19:21;10.00;99.90
37240;DHT22;23130;48.760;9.178;2023-11-19T04:21:47;10.00;99.90
37240;DHT22;23130;48.760;9.178;2023-11-19T04:24:13;10.00;99.90
37240;DHT22;23130;48.760;9.178;2023-11-19T04:26:42;10.00;99.90
37240;DHT22;23130;48.760;9.178;2023-11-19T04:29:11;10.00;99.90
37240;DHT22;23130;48.760;9.178;2023-11-19T04:31:37;10.00;99.90
37240;DHT22;23130;48.760;9.178;2023-11-19T04:34:02;10.00;99.90
37240;DHT22;23130;48.760;9.178;2023-11-19T04:36:28;10.10;99.90
37240;DHT22;23130;48.760;9.178;2023-11-19T04:38:55;10.00;99.90
37240;DHT22;23130;48.760;9.178;2023-11-19T04:41:20;10.10;99.90
37240;DHT22;23130;48.760;9.178;2023-11-19T04:43:46;10.10;99.90
37240;DHT22;23130;48.760;9.178;2023-11-19T04:46:11;10.10;99.90
37240;DHT22;23130;48.760;9.178;2023-11-19T04:48:37;10.20;99.90
37240;DHT22;23130;48.760;9.178;2023-11-19T04:51:04;10.20;99.90
37240;DHT22;23130;48.760;9.178;2023-11-19T04:53:30;10.20;99.90
37240;DHT22;23130;48.760;9.178;2023-11-19T04:55:55;10.30;99.90
37240;DHT22;23130;48.760;9.178;2023-11-19T04:58:21;10.30;99.90
37240;DHT22;23130;48.760;9.178;2023-11-19T05:00:46;10.30;99.90
37240;DHT22;23130;48.760;9.178;2023-11-19T05:03:12;10.30;99.90
37240;DHT22;23130;48.760;9.178;2023-11-19T05:05:37;10.40;99.90
37240;DHT22;23130;48.760;9.178;2023-11-19T05:08:03;10.30;99.90
37240;DHT22;23130;48.760;9.178;2023-11-19T05:10:29;10.40;99.90
37240;DHT22;23130;48.760;9.178;2023-11-19T05:12:55;10.40;99.90
37240;DHT22;23130;48.760;9.178;2023-11-19T05:15:21;10.30;99.90
37240;DHT22;23130;48.760;9.178;2023-11-19T05:17:47;10.30;99.90
37240;DHT22;23130;48.760;9.178;2023-11-19T05:20:13;10.40;99.90
37240;DHT22;23130;48.760;9.178;2023-11-19T05:22:39;10.40;99.90
37240;DHT22;23130;48.760;9.178;2023-11-19T05:25:05;10.30;99.90
37240;DHT22;23130;48.760;9.178;2023-11-19T05:27:31;10.40;99.90
37240;DHT22;23130;48.760;9.178;2023-11-19T05:29:56;10.40;99.90
37240;DHT22;23130;48.760;9.178;2023-11-19T05:32:22;10.40;99.90
37240;DHT22;23130;48.760;9.178;2023-11-19T05:34:47;10.40;99.90
37240;DHT22;23130;48.760;9.178;2023-11-19T05:37:12;10.40;99.90
37240;DHT22;23130;48.760;9.178;2023-11-19T05:39:38;10.50;99.90
37240;DHT22;23130;48.760;9.178;2023-11-19T05:42:03;10.50;99.90
37240;DHT22;23130;48.760;9.178;2023-11-19T05:44:30;10.50;99.90
37240;DHT22;23130;48.760;9.178;2023-11-19T05:46:55;10.50;99.90
37240;DHT22;23130;48.760;9.178;2023-11-19T05:49:20;10.50;99.90
37240;DHT22;23130;48.760;9.178;2023-11-19T05:51:46;10.50;99.90
37240;DHT22;23130;48.760;9.178;2023-11-19T05:54:11;10.50;99.90
37240;DHT22;23130;48.760;9.178;2023-11-19T05:56:38;10.50;99.90
37240;DHT22;23130;48.760;9.178;2023-11-19T05:59:06;10.50;99.90
37240;DHT22;23130;48.760;9.178;2023-11-19T06:01:40;10.50;99.90
37240;DHT22;23130;48.760;9.178;2023-11-19T06:04:07;10.60;99.90
37240;DHT22;23130;48.760;9.178;2023-11-19T06:06:33;10.60;99.90
37240;DHT22;23130;48.760;9.178;2023-11-19T06:08:59;10.70;99.90
37240;DHT22;23130;48.760;9.178;2023-11-19T06:11:24;10.60;99.90
37240;DHT22;23130;48.760;9.178;2023-11-19T06:13:52;10.60;99.90
37240;DHT22;23130;48.760;9.178;2023-11-19T06:16:17;10.60;99.90
37240;DHT22;23130;48.760;9.178;2023-11-19T06:18:43;10.50;99.90
37240;DHT22;23130;48.760;9.178;2023-11-19T06:21:10;10.50;99.90
37240;DHT22;23130;48.760;9.178;2023-11-19T06:23:35;10.60;99.90
37240;DHT22;23130;48.760;9.178;2023-11-19T06:26:02;10.60;99.90
37240;DHT22;23130;48.760;9.178;2023-11-19T06:28:31;10.60;99.90
37240;DHT22;23130;48.760;9.178;2023-11-19T06:30:57;10.60;99.90
37240;DHT22;23130;48.760;9.178;2023-11-19T06:33:23;10.60;99.90
37240;DHT22;23130;48.760;9.178;2023-11-19T06:35:49;10.60;99.90
37240;DHT22;23130;48.760;9.178;2023-11-19T06:38:15;10.60;99.90
37240;DHT22;23130;48.760;9.178;2023-11-19T06:40:42;10.60;99.90
37240;DHT22;23130;48.760;9.178;2023-11-19T06:43:07;10.60;99.90
37240;DHT22;23130;48.760;9.178;2023-11-19T06:45:37;10.60;99.90
37240;DHT22;23130;48.760;9.178;2023-11-19T06:48:03;10.60;99.90
37240;DHT22;23130;48.760;9.178;2023-11-19T06:50:29;10.60;99.90
37240;DHT22;23130;48.760;9.178;2023-11-19T06:52:54;10.60;99.90
37240;DHT22;23130;48.760;9.178;2023-11-19T06:55:20;10.60;99.90
37240;DHT22;23130;48.760;9.178;2023-11-19T06:57:45;10.60;99.90
37240;DHT22;23130;48.760;9.178;2023-11-19T07:00:12;10.70;99.90
37240;DHT22;23130;48.760;9.178;2023-11-19T07:02:38;10.70;99.90
37240;DHT22;23130;48.760;9.178;2023-11-19T07:05:05;10.60;99.90
37240;DHT22;23130;48.760;9.178;2023-11-19T07:07:31;10.60;99.90
37240;DHT22;23130;48.760;9.178;2023-11-19T07:09:57;10.60;99.90
37240;DHT22;23130;48.760;9.178;2023-11-19T07:12:24;10.60;99.90
37240;DHT22;23130;48.760;9.178;2023-11-19T07:14:53;10.60;99.90
37240;DHT22;23130;48.760;9.178;2023-11-19T07:17:27;10.60;99.90
37240;DHT22;23130;48.760;9.178;2023-11-19T07:19:53;10.60;99.90
37240;DHT22;23130;48.760;9.178;2023-11-19T07:22:18;10.60;99.90
37240;DHT22;23130;48.760;9.178;2023-11-19T07:24:43;10.70;99.90
37240;DHT22;23130;48.760;9.178;2023-11-19T07:27:09;10.80;99.90
37240;DHT22;23130;48.760;9.178;2023-11-19T07:29:35;10.80;99.90
37240;DHT22;23130;48.760;9.178;2023-11-19T07:32:01;10.80;99.90
37240;DHT22;23130;48.760;9.178;2023-11-19T07:34:27;10.90;99.90
37240;DHT22;23130;48.760;9.178;2023-11-19T07:36:52;10.90;99.90
37240;DHT22;23130;48.760;9.178;2023-11-19T07:39:18;11.00;99.90
37240;DHT22;23130;48.760;9.178;2023-11-19T07:41:46;11.00;99.90
37240;DHT22;23130;48.760;9.178;2023-11-19T07:44:11;11.00;99.90
37240;DHT22;23130;48.760;9.178;2023-11-19T07:46:37;11.00;99.90
37240;DHT22;23130;48.760;9.178;2023-11-19T07:49:03;11.00;99.90
37240;DHT22;23130;48.760;9.178;2023-11-19T07:51:28;11.00;99.90
37240;DHT22;23130;48.760;9.178;2023-11-19T07:53:54;11.10;99.90
37240;DHT22;23130;48.760;9.178;2023-11-19T07:56:19;11.00;99.90
37240;DHT22;23130;48.760;9.178;2023-11-19T07:58:44;11.10;99.90
37240;DHT22;23130;48.760;9.178;2023-11-19T08:01:10;11.10;99.90
37240;DHT22;23130;48.760;9.178;2023-11-19T08:03:35;11.10;99.90
37240;DHT22;23130;48.760;9.178;2023-11-19T08:06:01;11.20;99.90
37240;DHT22;23130;48.760;9.178;2023-11-19T08:08:27;11.20;99.90
37240;DHT22;23130;48.760;9.178;2023-11-19T08:10:54;11.30;99.90
37240;DHT22;23130;48.760;9.178;2023-11-19T08:13:22;11.30;99.90
37240;DHT22;23130;48.760;9.178;2023-11-19T08:15:48;11.40;99.90
37240;DHT22;23130;48.760;9.178;2023-11-19T08:18:13;11.40;99.90
37240;DHT22;23130;48.760;9.178;2023-11-19T08:20:39;11.50;99.90
37240;DHT22;23130;48.760;9.178;2023-11-19T08:23:04;11.40;99.90
37240;DHT22;23130;48.760;9.178;2023-11-19T08:25:31;11.50;99.90
37240;DHT22;23130;48.760;9.178;2023-11-19T08:27:59;11.50;99.90
37240;DHT22;23130;48.760;9.178;2023-11-19T08:30:24;11.50;99.90
37240;DHT22;23130;48.760;9.178;2023-11-19T08:32:50;11.50;99.90
37240;DHT22;23130;48.760;9.178;2023-11-19T08:35:15;11.60;99.90
37240;DHT22;23130;48.760;9.178;2023-11-19T08:37:41;11.70;99.90
37240;DHT22;23130;48.760;9.178;2023-11-19T08:40:07;12.00;99.90
37240;DHT22;23130;48.760;9.178;2023-11-19T08:42:33;12.00;99.90
37240;DHT22;23130;48.760;9.178;2023-11-19T08:44:58;12.00;99.90
37240;DHT22;23130;48.760;9.178;2023-11-19T08:47:24;12.10;99.90
37240;DHT22;23130;48.760;9.178;2023-11-19T08:49:52;12.20;99.90
37240;DHT22;23130;48.760;9.178;2023-11-19T08:52:18;12.30;99.90
37240;DHT22;23130;48.760;9.178;2023-11-19T08:54:44;12.30;99.90
37240;DHT22;23130;48.760;9.178;2023-11-19T08:57:09;12.30;99.90
37240;DHT22;23130;48.760;9.178;2023-11-19T08:59:36;12.20;99.90
37240;DHT22;23130;48.760;9.178;2023-11-19T09:02:05;12.30;99.90
37240;DHT22;23130;48.760;9.178;2023-11-19T09:04:30;12.30;99.90
37240;DHT22;23130;48.760;9.178;2023-11-19T09:06:57;12.30;99.90
37240;DHT22;23130;48.760;9.178;2023-11-19T09:09:23;12.40;99.90
37240;DHT22;23130;48.760;9.178;2023-11-19T09:11:48;12.50;99.90
37240;DHT22;23130;48.760;9.178;2023-11-19T09:14:13;12.50;99.90
37240;DHT22;23130;48.760;9.178;2023-11-19T09:16:39;12.70;99.90
37240;DHT22;23130;48.760;9.178;2023-11-19T09:19:04;12.70;99.90
37240;DHT22;23130;48.760;9.178;2023-11-19T09:21:31;12.80;99.90
37240;DHT22;23130;48.760;9.178;2023-11-19T09:23:58;12.80;99.90
37240;DHT22;23130;48.760;9.178;2023-11-19T09:26:24;12.80;99.90
37240;DHT22;23130;48.760;9.178;2023-11-19T09:28:49;12.80;99.90
37240;DHT22;23130;48.760;9.178;2023-11-19T09:31:15;12.80;99.90
37240;DHT22;23130;48.760;9.178;2023-11-19T09:33:41;12.90;99.90
37240;DHT22;23130;48.760;9.178;2023-11-19T09:36:07;13.00;99.90
37240;DHT22;23130;48.760;9.178;2023-11-19T09:38:32;13.20;99.90
37240;DHT22;23130;48.760;9.178;2023-11-19T09:40:58;13.30;99.90
37240;DHT22;23130;48.760;9.178;2023-11-19T09:43:25;13.40;99.90
37240;DHT22;23130;48.760;9.178;2023-11-19T09:45:53;13.40;99.90
37240;DHT22;23130;48.760;9.178;2023-11-19T09:48:20;13.40;99.90
37240;DHT22;23130;48.760;9.178;2023-11-19T09:50:46;13.40;99.90
37240;DHT22;23130;48.760;9.178;2023-11-19T09:53:12;13.30;99.90
37240;DHT22;23130;48.760;9.178;2023-11-19T09:55:37;13.30;99.90
37240;DHT22;23130;48.760;9.178;2023-11-19T09:58:04;13.30;99.90
37240;DHT22;23130;48.760;9.178;2023-11-19T10:00:30;13.30;99.90
37240;DHT22;23130;48.760;9.178;2023-11-19T10:02:56;13.40;99.90
37240;DHT22;23130;48.760;9.178;2023-11-19T10:05:22;13.60;99.90
37240;DHT22;23130;48.760;9.178;2023-11-19T10:07:49;13.70;99.90
37240;DHT22;23130;48.760;9.178;2023-11-19T10:10:14;13.70;99.90
37240;DHT22;23130;48.760;9.178;2023-11-19T10:12:43;13.80;99.90
37240;DHT22;23130;48.760;9.178;2023-11-19T10:15:10;13.80;99.90
37240;DHT22;23130;48.760;9.178;2023-11-19T10:17:39;13.90;99.90
37240;DHT22;23130;48.760;9.178;2023-11-19T10:20:06;14.00;99.90
37240;DHT22;23130;48.760;9.178;2023-11-19T10:22:36;14.10;99.90
37240;DHT22;23130;48.760;9.178;2023-11-19T10:25:01;14.30;99.90
37240;DHT22;23130;48.760;9.178;2023-11-19T10:27:27;14.40;99.90
37240;DHT22;23130;48.760;9.178;2023-11-19T10:29:53;14.60;99.90
37240;DHT22;23130;48.760;9.178;2023-11-19T10:32:19;14.70;99.90
37240;DHT22;23130;48.760;9.178;2023-11-19T10:34:44;14.70;99.90
37240;DHT22;23130;48.760;9.178;2023-11-19T10:37:26;14.80;99.90
37240;DHT22;23130;48.760;9.178;2023-11-19T10:39:52;14.80;99.90
37240;DHT22;23130;48.760;9.178;2023-11-19T10:42:21;14.80;99.90
37240;DHT22;23130;48.760;9.178;2023-11-19T10:44:46;14.80;99.90
37240;DHT22;23130;48.760;9.178;2023-11-19T10:47:13;14.80;99.90
37240;DHT22;23130;48.760;9.178;2023-11-19T10:49:39;14.70;99.90
37240;DHT22;23130;48.760;9.178;2023-11-19T10:52:05;14.70;99.90
37240;DHT22;23130;48.760;9.178;2023-11-19T10:54:30;14.80;99.90
37240;DHT22;23130;48.760;9.178;2023-11-19T10:56:58;15.00;99.90
37240;DHT22;23130;48.760;9.178;2023-11-19T10:59:24;15.20;99.90
37240;DHT22;23130;48.760;9.178;2023-11-19T11:01:52;15.30;99.90
37240;DHT22;23130;48.760;9.178;2023-11-19T11:04:24;15.30;99.90
37240;DHT22;23130;48.760;9.178;2023-11-19T11:06:51;15.50;99.90
37240;DHT22;23130;48.760;9.178;2023-11-19T11:09:19;15.50;99.90
37240;DHT22;23130;48.760;9.178;2023-11-19T11:11:48;15.50;99.90
37240;DHT22;23130;48.760;9.178;2023-11-19T11:14:15;15.50;99.90
37240;DHT22;23130;48.760;9.178;2023-11-19T11:16:44;15.40;99.90
37240;DHT22;23130;48.760;9.178;2023-11-19T11:19:12;15.40;99.90
37240;DHT22;23130;48.760;9.178;2023-11-19T11:21:41;15.30;99.90
37240;DHT22;23130;48.760;9.178;2023-11-19T11:29:35;15.30;99.90
37240;DHT22;23130;48.760;9.178;2023-11-19T11:34:47;15.40;99.90
37240;DHT22;23130;48.760;9.178;2023-11-19T11:39:49;15.20;99.90
37240;DHT22;23130;48.760;9.178;2023-11-19T11:47:25;14.90;99.90
37240;DHT22;23130;48.760;9.178;2023-11-19T11:49:51;14.80;99.90
37240;DHT22;23130;48.760;9.178;2023-11-19T11:52:17;14.90;99.90
37240;DHT22;23130;48.760;9.178;2023-11-19T11:54:43;15.00;99.90
37240;DHT22;23130;48.760;9.178;2023-11-19T11:57:13;15.20;99.90
37240;DHT22;23130;48.760;9.178;2023-11-19T12:02:08;15.60;99.90
37240;DHT22;23130;48.760;9.178;2023-11-19T12:04:34;15.80;99.90
37240;DHT22;23130;48.760;9.178;2023-11-19T12:07:06;15.80;99.90
37240;DHT22;23130;48.760;9.178;2023-11-19T12:09:32;15.80;99.90
37240;DHT22;23130;48.760;9.178;2023-11-19T12:19:55;16.00;99.90
37240;DHT22;23130;48.760;9.178;2023-11-19T12:22:20;15.90;99.90
37240;DHT22;23130;48.760;9.178;2023-11-19T12:24:46;15.80;99.90
37240;DHT22;23130;48.760;9.178;2023-11-19T12:27:14;15.70;99.90
37240;DHT22;23130;48.760;9.178;2023-11-19T12:29:44;15.80;99.90
37240;DHT22;23130;48.760;9.178;2023-11-19T12:32:10;15.70;99.90
37240;DHT22;23130;48.760;9.178;2023-11-19T12:34:35;15.70;99.90
37240;DHT22;23130;48.760;9.178;2023-11-19T12:37:03;15.60;99.90
37240;DHT22;23130;48.760;9.178;2023-11-19T12:39:30;15.40;99.90
37240;DHT22;23130;48.760;9.178;2023-11-19T12:41:55;15.30;99.90
37240;DHT22;23130;48.760;9.178;2023-11-19T12:44:23;15.20;99.90
37240;DHT22;23130;48.760;9.178;2023-11-19T12:47:02;15.00;99.90
37240;DHT22;23130;48.760;9.178;2023-11-19T12:49:28;15.00;99.90
37240;DHT22;23130;48.760;9.178;2023-11-19T12:51:53;15.00;99.90
37240;DHT22;23130;48.760;9.178;2023-11-19T12:54:19;14.90;99.90
37240;DHT22;23130;48.760;9.178;2023-11-19T12:56:53;14.90;99.90
37240;DHT22;23130;48.760;9.178;2023-11-19T12:59:19;15.00;99.90
37240;DHT22;23130;48.760;9.178;2023-11-19T13:01:54;15.00;99.90
37240;DHT22;23130;48.760;9.178;2023-11-19T13:04:20;15.00;99.90
37240;DHT22;23130;48.760;9.178;2023-11-19T13:06:46;14.90;99.90
37240;DHT22;23130;48.760;9.178;2023-11-19T13:09:24;15.00;99.90
37240;DHT22;23130;48.760;9.178;2023-11-19T13:11:50;14.90;99.90
37240;DHT22;23130;48.760;9.178;2023-11-19T13:14:16;15.00;99.90
37240;DHT22;23130;48.760;9.178;2023-11-19T13:16:42;14.90;99.90
37240;DHT22;23130;48.760;9.178;2023-11-19T13:19:08;14.90;99.90
37240;DHT22;23130;48.760;9.178;2023-11-19T13:21:34;14.80;99.90
37240;DHT22;23130;48.760;9.178;2023-11-19T13:23:59;14.90;99.90
37240;DHT22;23130;48.760;9.178;2023-11-19T13:26:25;14.80;99.90
37240;DHT22;23130;48.760;9.178;2023-11-19T13:28:50;14.80;99.90
37240;DHT22;23130;48.760;9.178;2023-11-19T13:31:17;14.70;99.90
37240;DHT22;23130;48.760;9.178;2023-11-19T13:33:42;14.80;99.90
37240;DHT22;23130;48.760;9.178;2023-11-19T13:36:08;14.70;99.90
37240;DHT22;23130;48.760;9.178;2023-11-19T13:38:34;14.70;99.90
37240;DHT22;23130;48.760;9.178;2023-11-19T13:41:03;14.60;99.90
37240;DHT22;23130;48.760;9.178;2023-11-19T13:43:29;14.50;99.90
37240;DHT22;23130;48.760;9.178;2023-11-19T13:45:55;14.40;99.90
37240;DHT22;23130;48.760;9.178;2023-11-19T13:48:21;14.30;99.90
37240;DHT22;23130;48.760;9.178;2023-11-19T13:50:46;14.30;99.90
37240;DHT22;23130;48.760;9.178;2023-11-19T13:53:12;14.30;99.90
37240;DHT22;23130;48.760;9.178;2023-11-19T13:55:38;14.20;99.90
37240;DHT22;23130;48.760;9.178;2023-11-19T13:58:03;14.10;99.90
37240;DHT22;23130;48.760;9.178;2023-11-19T14:00:30;14.10;99.90
37240;DHT22;23130;48.760;9.178;2023-11-19T14:02:55;14.20;99.90
37240;DHT22;23130;48.760;9.178;2023-11-19T14:05:21;14.10;99.90
37240;DHT22;23130;48.760;9.178;2023-11-19T14:07:46;14.00;99.90
37240;DHT22;23130;48.760;9.178;2023-11-19T14:10:16;14.00;99.90
37240;DHT22;23130;48.760;9.178;2023-11-19T14:12:42;13.90;99.90
37240;DHT22;23130;48.760;9.178;2023-11-19T14:15:09;13.80;99.90
37240;DHT22;23130;48.760;9.178;2023-11-19T14:17:38;13.70;99.90
37240;DHT22;23130;48.760;9.178;2023-11-19T14:20:04;13.70;99.90
37240;DHT22;23130;48.760;9.178;2023-11-19T14:22:41;13.80;99.90
37240;DHT22;23130;48.760;9.178;2023-11-19T14:25:07;13.80;99.90
37240;DHT22;23130;48.760;9.178;2023-11-19T14:27:36;13.80;99.90
37240;DHT22;23130;48.760;9.178;2023-11-19T14:30:03;13.70;99.90
37240;DHT22;23130;48.760;9.178;2023-11-19T14:32:30;13.70;99.90
37240;DHT22;23130;48.760;9.178;2023-11-19T14:34:56;13.70;99.90
37240;DHT22;23130;48.760;9.178;2023-11-19T14:37:21;13.50;99.90
37240;DHT22;23130;48.760;9.178;2023-11-19T14:39:47;13.50;99.90
37240;DHT22;23130;48.760;9.178;2023-11-19T14:42:15;13.40;99.90
37240;DHT22;23130;48.760;9.178;2023-11-19T14:44:40;13.40;99.90
37240;DHT22;23130;48.760;9.178;2023-11-19T14:47:06;13.30;99.90
37240;DHT22;23130;48.760;9.178;2023-11-19T14:49:31;13.20;99.90
37240;DHT22;23130;48.760;9.178;2023-11-19T14:51:57;13.20;99.90
37240;DHT22;23130;48.760;9.178;2023-11-19T14:54:32;13.10;99.90
37240;DHT22;23130;48.760;9.178;2023-11-19T14:56:58;13.00;99.90
37240;DHT22;23130;48.760;9.178;2023-11-19T14:59:25;13.00;99.90
37240;DHT22;23130;48.760;9.178;2023-11-19T15:01:51;12.90;99.90
37240;DHT22;23130;48.760;9.178;2023-11-19T15:04:18;12.90;99.90
37240;DHT22;23130;48.760;9.178;2023-11-19T15:06:43;12.90;99.90
37240;DHT22;23130;48.760;9.178;2023-11-19T15:09:08;12.80;99.90
37240;DHT22;23130;48.760;9.178;2023-11-19T15:11:35;12.80;99.90
37240;DHT22;23130;48.760;9.178;2023-11-19T15:14:00;12.80;99.90
37240;DHT22;23130;48.760;9.178;2023-11-19T15:16:26;12.90;99.90
37240;DHT22;23130;48.760;9.178;2023-11-19T15:18:59;12.80;99.90
37240;DHT22;23130;48.760;9.178;2023-11-19T15:21:27;12.70;99.90
37240;DHT22;23130;48.760;9.178;2023-11-19T15:23:54;12.70;99.90
37240;DHT22;23130;48.760;9.178;2023-11-19T15:26:20;12.60;99.90
37240;DHT22;23130;48.760;9.178;2023-11-19T15:28:46;12.60;99.90
37240;DHT22;23130;48.760;9.178;2023-11-19T15:31:11;12.60;99.90
37240;DHT22;23130;48.760;9.178;2023-11-19T15:33:38;12.50;99.90
37240;DHT22;23130;48.760;9.178;2023-11-19T15:36:05;12.40;99.90
37240;DHT22;23130;48.760;9.178;2023-11-19T15:38:33;12.30;99.90
37240;DHT22;23130;48.760;9.178;2023-11-19T15:40:58;12.40;99.90
37240;DHT22;23130;48.760;9.178;2023-11-19T15:43:24;12.40;99.90
37240;DHT22;23130;48.760;9.178;2023-11-19T15:45:49;12.30;99.90
37240;DHT22;23130;48.760;9.178;2023-11-19T15:48:15;12.20;99.90
37240;DHT22;23130;48.760;9.178;2023-11-19T15:50:40;12.10;99.90
37240;DHT22;23130;48.760;9.178;2023-11-19T15:53:06;11.90;99.90
37240;DHT22;23130;48.760;9.178;2023-11-19T15:55:31;11.90;99.90